sensor_id;sensor_type;location;lat;lon;timestamp;P1;durP1;ratioP1;P2;durP2;ratioP2
10120;SDS011;5100;45.176;5.714;2022-08-21T00:00:18;1.37;;;0.90;;
10120;SDS011;5100;45.176;5.714;2022-08-21T00:02:49;1.52;;;0.88;;
10120;SDS011;5100;45.176;5.714;2022-08-21T00:05:18;2.47;;;1.10;;
10120;SDS011;5100;45.176;5.714;2022-08-21T00:07:46;1.75;;;0.80;;
10120;SDS011;5100;45.176;5.714;2022-08-21T00:10:12;1.02;;;0.70;;
10120;SDS011;5100;45.176;5.714;2022-08-21T00:12:40;1.05;;;0.82;;
10120;SDS011;5100;45.176;5.714;2022-08-21T00:15:08;2.53;;;0.77;;
10120;SDS011;5100;45.176;5.714;2022-08-21T00:17:35;0.80;;;0.80;;
10120;SDS011;5100;45.176;5.714;2022-08-21T00:20:06;4.05;;;1.30;;
10120;SDS011;5100;45.176;5.714;2022-08-21T00:22:35;1.62;;;0.85;;
10120;SDS011;5100;45.176;5.714;2022-08-21T00:25:03;1.95;;;0.80;;
10120;SDS011;5100;45.176;5.714;2022-08-21T00:27:31;1.77;;;0.80;;
10120;SDS011;5100;45.176;5.714;2022-08-21T00:29:58;0.70;;;0.70;;
10120;SDS011;5100;45.176;5.714;2022-08-21T00:32:25;0.80;;;0.80;;
10120;SDS011;5100;45.176;5.714;2022-08-21T00:34:53;2.05;;;0.82;;
10120;SDS011;5100;45.176;5.714;2022-08-21T00:37:20;1.42;;;0.90;;
10120;SDS011;5100;45.176;5.714;2022-08-21T00:39:46;1.15;;;0.90;;
10120;SDS011;5100;45.176;5.714;2022-08-21T00:42:13;1.17;;;1.00;;
10120;SDS011;5100;45.176;5.714;2022-08-21T00:44:44;2.05;;;0.93;;
10120;SDS011;5100;45.176;5.714;2022-08-21T00:47:12;2.45;;;1.00;;
10120;SDS011;5100;45.176;5.714;2022-08-21T00:49:39;2.28;;;1.00;;
10120;SDS011;5100;45.176;5.714;2022-08-21T00:52:08;1.10;;;1.00;;
10120;SDS011;5100;45.176;5.714;2022-08-21T00:54:38;1.52;;;1.10;;
10120;SDS011;5100;45.176;5.714;2022-08-21T00:57:13;2.72;;;0.88;;
10120;SDS011;5100;45.176;5.714;2022-08-21T00:59:48;2.12;;;0.90;;
10120;SDS011;5100;45.176;5.714;2022-08-21T01:02:18;2.67;;;0.80;;
10120;SDS011;5100;45.176;5.714;2022-08-21T01:04:45;3.85;;;1.05;;
10120;SDS011;5100;45.176;5.714;2022-08-21T01:07:12;0.82;;;0.70;;
10120;SDS011;5100;45.176;5.714;2022-08-21T01:09:38;2.10;;;0.90;;
10120;SDS011;5100;45.176;5.714;2022-08-21T01:12:06;2.45;;;0.90;;
10120;SDS011;5100;45.176;5.714;2022-08-21T01:14:32;2.83;;;0.85;;
10120;SDS011;5100;45.176;5.714;2022-08-21T01:17:00;1.40;;;0.85;;
10120;SDS011;5100;45.176;5.714;2022-08-21T01:19:28;0.80;;;0.80;;
10120;SDS011;5100;45.176;5.714;2022-08-21T01:21:55;1.98;;;0.90;;
10120;SDS011;5100;45.176;5.714;2022-08-21T01:24:22;1.92;;;1.00;;
10120;SDS011;5100;45.176;5.714;2022-08-21T01:26:49;0.95;;;0.90;;
10120;SDS011;5100;45.176;5.714;2022-08-21T01:29:32;0.82;;;0.82;;
10120;SDS011;5100;45.176;5.714;2022-08-21T01:32:17;0.98;;;0.90;;
10120;SDS011;5100;45.176;5.714;2022-08-21T01:34:45;1.92;;;0.80;;
10120;SDS011;5100;45.176;5.714;2022-08-21T01:37:13;0.95;;;0.95;;
10120;SDS011;5100;45.176;5.714;2022-08-21T01:39:41;4.05;;;1.35;;
10120;SDS011;5100;45.176;5.714;2022-08-21T01:42:08;1.25;;;0.90;;
10120;SDS011;5100;45.176;5.714;2022-08-21T01:44:34;0.90;;;0.90;;
10120;SDS011;5100;45.176;5.714;2022-08-21T01:47:03;0.90;;;0.80;;
10120;SDS011;5100;45.176;5.714;2022-08-21T01:49:31;1.20;;;0.90;;
10120;SDS011;5100;45.176;5.714;2022-08-21T01:51:57;1.55;;;1.10;;
10120;SDS011;5100;45.176;5.714;2022-08-21T01:54:24;1.02;;;1.00;;
10120;SDS011;5100;45.176;5.714;2022-08-21T01:56:51;1.85;;;1.10;;
10120;SDS011;5100;45.176;5.714;2022-08-21T01:59:19;1.65;;;1.15;;
10120;SDS011;5100;45.176;5.714;2022-08-21T02:01:46;1.30;;;1.10;;
10120;SDS011;5100;45.176;5.714;2022-08-21T02:04:12;1.10;;;0.95;;
10120;SDS011;5100;45.176;5.714;2022-08-21T02:06:39;1.35;;;0.80;;
10120;SDS011;5100;45.176;5.714;2022-08-21T02:09:07;1.40;;;1.30;;
10120;SDS011;5100;45.176;5.714;2022-08-21T02:11:36;0.90;;;0.90;;
10120;SDS011;5100;45.176;5.714;2022-08-21T02:14:09;1.10;;;1.00;;
10120;SDS011;5100;45.176;5.714;2022-08-21T02:16:38;5.37;;;1.00;;
10120;SDS011;5100;45.176;5.714;2022-08-21T02:19:04;1.50;;;1.12;;
10120;SDS011;5100;45.176;5.714;2022-08-21T02:21:31;1.20;;;1.10;;
10120;SDS011;5100;45.176;5.714;2022-08-21T02:23:58;2.12;;;0.80;;
10120;SDS011;5100;45.176;5.714;2022-08-21T02:26:24;2.22;;;1.27;;
10120;SDS011;5100;45.176;5.714;2022-08-21T02:28:51;8.82;;;1.33;;
10120;SDS011;5100;45.176;5.714;2022-08-21T02:31:18;1.73;;;1.23;;
10120;SDS011;5100;45.176;5.714;2022-08-21T02:33:45;2.37;;;1.02;;
10120;SDS011;5100;45.176;5.714;2022-08-21T02:36:11;3.08;;;1.00;;
10120;SDS011;5100;45.176;5.714;2022-08-21T02:38:40;1.80;;;1.10;;
10120;SDS011;5100;45.176;5.714;2022-08-21T02:41:08;3.40;;;1.20;;
10120;SDS011;5100;45.176;5.714;2022-08-21T02:43:37;1.83;;;1.20;;
10120;SDS011;5100;45.176;5.714;2022-08-21T02:46:05;2.95;;;1.10;;
10120;SDS011;5100;45.176;5.714;2022-08-21T02:48:32;2.95;;;1.48;;
10120;SDS011;5100;45.176;5.714;2022-08-21T02:51:01;1.60;;;1.00;;
10120;SDS011;5100;45.176;5.714;2022-08-21T02:53:29;2.90;;;1.20;;
10120;SDS011;5100;45.176;5.714;2022-08-21T02:55:58;3.45;;;1.15;;
10120;SDS011;5100;45.176;5.714;2022-08-21T02:58:27;1.92;;;1.12;;
10120;SDS011;5100;45.176;5.714;2022-08-21T03:00:56;1.52;;;1.33;;
10120;SDS011;5100;45.176;5.714;2022-08-21T03:03:24;2.95;;;1.20;;
10120;SDS011;5100;45.176;5.714;2022-08-21T03:05:52;1.20;;;0.90;;
10120;SDS011;5100;45.176;5.714;2022-08-21T03:08:20;1.70;;;1.27;;
10120;SDS011;5100;45.176;5.714;2022-08-21T03:10:50;1.77;;;1.10;;
10120;SDS011;5100;45.176;5.714;2022-08-21T03:13:18;2.08;;;1.10;;
10120;SDS011;5100;45.176;5.714;2022-08-21T03:15:47;5.15;;;1.35;;
10120;SDS011;5100;45.176;5.714;2022-08-21T03:18:14;2.90;;;1.10;;
10120;SDS011;5100;45.176;5.714;2022-08-21T03:20:41;1.70;;;1.10;;
10120;SDS011;5100;45.176;5.714;2022-08-21T03:23:09;2.05;;;1.52;;
10120;SDS011;5100;45.176;5.714;2022-08-21T03:25:35;1.92;;;1.23;;
10120;SDS011;5100;45.176;5.714;2022-08-21T03:28:02;1.65;;;1.33;;
10120;SDS011;5100;45.176;5.714;2022-08-21T03:30:30;1.30;;;1.20;;
10120;SDS011;5100;45.176;5.714;2022-08-21T03:32:58;1.65;;;1.48;;
10120;SDS011;5100;45.176;5.714;2022-08-21T03:35:25;2.15;;;1.50;;
10120;SDS011;5100;45.176;5.714;2022-08-21T03:37:53;3.33;;;1.23;;
10120;SDS011;5100;45.176;5.714;2022-08-21T03:40:21;2.40;;;1.23;;
10120;SDS011;5100;45.176;5.714;2022-08-21T03:42:48;3.15;;;1.12;;
10120;SDS011;5100;45.176;5.714;2022-08-21T03:45:15;1.20;;;1.20;;
10120;SDS011;5100;45.176;5.714;2022-08-21T03:50:18;1.15;;;1.08;;
10120;SDS011;5100;45.176;5.714;2022-08-21T03:52:45;2.12;;;1.10;;
10120;SDS011;5100;45.176;5.714;2022-08-21T03:55:11;4.25;;;1.30;;
10120;SDS011;5100;45.176;5.714;2022-08-21T03:57:38;1.37;;;1.30;;
10120;SDS011;5100;45.176;5.714;2022-08-21T04:00:05;4.97;;;1.40;;
10120;SDS011;5100;45.176;5.714;2022-08-21T04:02:34;3.00;;;1.20;;
10120;SDS011;5100;45.176;5.714;2022-08-21T04:05:01;2.08;;;1.05;;
10120;SDS011;5100;45.176;5.714;2022-08-21T04:07:28;2.90;;;1.20;;
10120;SDS011;5100;45.176;5.714;2022-08-21T04:09:55;1.58;;;1.27;;
10120;SDS011;5100;45.176;5.714;2022-08-21T04:12:21;2.00;;;1.30;;
10120;SDS011;5100;45.176;5.714;2022-08-21T04:14:49;2.17;;;1.15;;
10120;SDS011;5100;45.176;5.714;2022-08-21T04:17:17;1.10;;;1.00;;
10120;SDS011;5100;45.176;5.714;2022-08-21T04:19:44;2.25;;;1.30;;
10120;SDS011;5100;45.176;5.714;2022-08-21T04:22:11;1.00;;;1.00;;
10120;SDS011;5100;45.176;5.714;2022-08-21T04:24:37;1.65;;;1.27;;
10120;SDS011;5100;45.176;5.714;2022-08-21T04:27:04;1.73;;;1.30;;
10120;SDS011;5100;45.176;5.714;2022-08-21T04:29:30;1.58;;;1.48;;
10120;SDS011;5100;45.176;5.714;2022-08-21T04:31:57;5.50;;;1.55;;
10120;SDS011;5100;45.176;5.714;2022-08-21T04:34:23;1.50;;;1.40;;
10120;SDS011;5100;45.176;5.714;2022-08-21T04:36:49;6.37;;;1.77;;
10120;SDS011;5100;45.176;5.714;2022-08-21T04:39:16;1.58;;;1.40;;
10120;SDS011;5100;45.176;5.714;2022-08-21T04:41:42;1.85;;;1.50;;
10120;SDS011;5100;45.176;5.714;2022-08-21T04:44:09;2.95;;;1.55;;
10120;SDS011;5100;45.176;5.714;2022-08-21T04:46:35;4.05;;;1.70;;
10120;SDS011;5100;45.176;5.714;2022-08-21T04:49:01;3.33;;;1.67;;
10120;SDS011;5100;45.176;5.714;2022-08-21T04:51:29;2.95;;;1.55;;
10120;SDS011;5100;45.176;5.714;2022-08-21T04:56:35;3.10;;;1.60;;
10120;SDS011;5100;45.176;5.714;2022-08-21T04:59:06;2.33;;;1.65;;
10120;SDS011;5100;45.176;5.714;2022-08-21T05:01:38;2.10;;;1.50;;
10120;SDS011;5100;45.176;5.714;2022-08-21T05:04:07;2.53;;;1.40;;
10120;SDS011;5100;45.176;5.714;2022-08-21T05:06:36;3.15;;;1.87;;
10120;SDS011;5100;45.176;5.714;2022-08-21T05:09:07;2.08;;;1.45;;
10120;SDS011;5100;45.176;5.714;2022-08-21T05:11:35;2.28;;;1.65;;
10120;SDS011;5100;45.176;5.714;2022-08-21T05:14:03;4.78;;;1.40;;
10120;SDS011;5100;45.176;5.714;2022-08-21T05:16:29;4.85;;;1.95;;
10120;SDS011;5100;45.176;5.714;2022-08-21T05:18:56;2.47;;;1.35;;
10120;SDS011;5100;45.176;5.714;2022-08-21T05:21:22;2.85;;;1.58;;
10120;SDS011;5100;45.176;5.714;2022-08-21T05:23:49;3.12;;;1.70;;
10120;SDS011;5100;45.176;5.714;2022-08-21T05:26:15;2.65;;;1.60;;
10120;SDS011;5100;45.176;5.714;2022-08-21T05:28:41;3.22;;;1.58;;
10120;SDS011;5100;45.176;5.714;2022-08-21T05:31:08;4.93;;;1.75;;
10120;SDS011;5100;45.176;5.714;2022-08-21T05:33:34;1.70;;;1.10;;
10120;SDS011;5100;45.176;5.714;2022-08-21T05:36:01;4.68;;;1.75;;
10120;SDS011;5100;45.176;5.714;2022-08-21T05:38:28;1.55;;;1.37;;
10120;SDS011;5100;45.176;5.714;2022-08-21T05:40:54;2.42;;;1.35;;
10120;SDS011;5100;45.176;5.714;2022-08-21T05:43:21;3.30;;;1.42;;
10120;SDS011;5100;45.176;5.714;2022-08-21T05:45:47;2.85;;;1.40;;
10120;SDS011;5100;45.176;5.714;2022-08-21T05:48:15;1.65;;;1.40;;
10120;SDS011;5100;45.176;5.714;2022-08-21T05:50:43;3.87;;;1.50;;
10120;SDS011;5100;45.176;5.714;2022-08-21T05:53:11;2.50;;;1.20;;
10120;SDS011;5100;45.176;5.714;2022-08-21T05:55:39;3.95;;;1.77;;
10120;SDS011;5100;45.176;5.714;2022-08-21T05:58:07;1.60;;;1.40;;
10120;SDS011;5100;45.176;5.714;2022-08-21T06:00:33;1.50;;;1.40;;
10120;SDS011;5100;45.176;5.714;2022-08-21T06:03:00;4.57;;;1.60;;
10120;SDS011;5100;45.176;5.714;2022-08-21T06:05:26;4.90;;;1.50;;
10120;SDS011;5100;45.176;5.714;2022-08-21T06:07:53;8.68;;;1.90;;
10120;SDS011;5100;45.176;5.714;2022-08-21T06:10:20;3.00;;;1.50;;
10120;SDS011;5100;45.176;5.714;2022-08-21T06:12:52;1.50;;;1.40;;
10120;SDS011;5100;45.176;5.714;2022-08-21T06:15:20;2.40;;;1.27;;
10120;SDS011;5100;45.176;5.714;2022-08-21T06:17:46;4.70;;;1.52;;
10120;SDS011;5100;45.176;5.714;2022-08-21T06:20:12;2.60;;;1.37;;
10120;SDS011;5100;45.176;5.714;2022-08-21T06:22:39;1.35;;;1.27;;
10120;SDS011;5100;45.176;5.714;2022-08-21T06:25:05;3.58;;;1.45;;
10120;SDS011;5100;45.176;5.714;2022-08-21T06:27:32;2.03;;;1.80;;
10120;SDS011;5100;45.176;5.714;2022-08-21T06:29:59;2.75;;;1.60;;
10120;SDS011;5100;45.176;5.714;2022-08-21T06:32:25;2.37;;;1.40;;
10120;SDS011;5100;45.176;5.714;2022-08-21T06:34:51;2.50;;;1.40;;
10120;SDS011;5100;45.176;5.714;2022-08-21T06:37:18;4.15;;;1.50;;
10120;SDS011;5100;45.176;5.714;2022-08-21T06:39:44;2.80;;;1.30;;
10120;SDS011;5100;45.176;5.714;2022-08-21T06:42:16;3.95;;;1.48;;
10120;SDS011;5100;45.176;5.714;2022-08-21T06:44:43;3.37;;;1.80;;
10120;SDS011;5100;45.176;5.714;2022-08-21T06:47:10;1.60;;;1.45;;
10120;SDS011;5100;45.176;5.714;2022-08-21T06:49:36;2.50;;;1.20;;
10120;SDS011;5100;45.176;5.714;2022-08-21T06:52:03;2.45;;;1.33;;
10120;SDS011;5100;45.176;5.714;2022-08-21T06:54:33;1.33;;;1.15;;
10120;SDS011;5100;45.176;5.714;2022-08-21T06:57:00;2.47;;;1.62;;
10120;SDS011;5100;45.176;5.714;2022-08-21T06:59:26;1.95;;;1.50;;
10120;SDS011;5100;45.176;5.714;2022-08-21T07:01:53;1.42;;;1.30;;
10120;SDS011;5100;45.176;5.714;2022-08-21T07:04:19;2.80;;;1.30;;
10120;SDS011;5100;45.176;5.714;2022-08-21T07:06:46;4.37;;;1.10;;
10120;SDS011;5100;45.176;5.714;2022-08-21T07:09:12;3.37;;;1.30;;
10120;SDS011;5100;45.176;5.714;2022-08-21T07:11:38;1.87;;;1.40;;
10120;SDS011;5100;45.176;5.714;2022-08-21T07:14:05;2.92;;;1.40;;
10120;SDS011;5100;45.176;5.714;2022-08-21T07:16:31;3.65;;;1.50;;
10120;SDS011;5100;45.176;5.714;2022-08-21T07:18:58;1.60;;;1.50;;
10120;SDS011;5100;45.176;5.714;2022-08-21T07:21:25;4.07;;;1.50;;
10120;SDS011;5100;45.176;5.714;2022-08-21T07:23:51;5.80;;;1.80;;
10120;SDS011;5100;45.176;5.714;2022-08-21T07:26:19;2.67;;;1.75;;
10120;SDS011;5100;45.176;5.714;2022-08-21T07:28:48;4.28;;;1.83;;
10120;SDS011;5100;45.176;5.714;2022-08-21T07:31:15;2.78;;;1.50;;
10120;SDS011;5100;45.176;5.714;2022-08-21T07:33:43;6.10;;;1.58;;
10120;SDS011;5100;45.176;5.714;2022-08-21T07:36:10;3.90;;;1.62;;
10120;SDS011;5100;45.176;5.714;2022-08-21T07:38:37;3.17;;;1.55;;
10120;SDS011;5100;45.176;5.714;2022-08-21T07:41:06;2.22;;;1.50;;
10120;SDS011;5100;45.176;5.714;2022-08-21T07:43:38;4.07;;;1.60;;
10120;SDS011;5100;45.176;5.714;2022-08-21T07:46:05;1.62;;;1.35;;
10120;SDS011;5100;45.176;5.714;2022-08-21T07:48:31;2.58;;;1.30;;
10120;SDS011;5100;45.176;5.714;2022-08-21T07:50:58;2.58;;;1.40;;
10120;SDS011;5100;45.176;5.714;2022-08-21T07:53:27;1.40;;;1.23;;
10120;SDS011;5100;45.176;5.714;2022-08-21T07:55:56;1.73;;;1.40;;
10120;SDS011;5100;45.176;5.714;2022-08-21T07:58:23;1.58;;;1.48;;
10120;SDS011;5100;45.176;5.714;2022-08-21T08:00:50;4.10;;;1.50;;
10120;SDS011;5100;45.176;5.714;2022-08-21T08:03:17;1.98;;;1.40;;
10120;SDS011;5100;45.176;5.714;2022-08-21T08:05:43;1.75;;;1.65;;
10120;SDS011;5100;45.176;5.714;2022-08-21T08:08:09;2.40;;;1.30;;
10120;SDS011;5100;45.176;5.714;2022-08-21T08:10:37;1.52;;;1.42;;
10120;SDS011;5100;45.176;5.714;2022-08-21T08:13:04;2.00;;;1.40;;
10120;SDS011;5100;45.176;5.714;2022-08-21T08:15:31;1.55;;;1.40;;
10120;SDS011;5100;45.176;5.714;2022-08-21T08:17:57;2.05;;;1.40;;
10120;SDS011;5100;45.176;5.714;2022-08-21T08:20:24;3.20;;;1.50;;
10120;SDS011;5100;45.176;5.714;2022-08-21T08:22:52;3.10;;;1.55;;
10120;SDS011;5100;45.176;5.714;2022-08-21T08:25:20;1.70;;;1.30;;
10120;SDS011;5100;45.176;5.714;2022-08-21T08:27:48;2.53;;;1.50;;
10120;SDS011;5100;45.176;5.714;2022-08-21T08:30:15;1.62;;;1.40;;
10120;SDS011;5100;45.176;5.714;2022-08-21T08:32:44;4.25;;;1.52;;
10120;SDS011;5100;45.176;5.714;2022-08-21T08:35:11;3.42;;;1.52;;
10120;SDS011;5100;45.176;5.714;2022-08-21T08:37:38;2.28;;;1.17;;
10120;SDS011;5100;45.176;5.714;2022-08-21T08:40:14;1.73;;;1.30;;
10120;SDS011;5100;45.176;5.714;2022-08-21T08:42:46;2.10;;;1.30;;
10120;SDS011;5100;45.176;5.714;2022-08-21T08:45:16;3.83;;;1.40;;
10120;SDS011;5100;45.176;5.714;2022-08-21T08:47:46;1.35;;;1.25;;
10120;SDS011;5100;45.176;5.714;2022-08-21T08:50:24;1.60;;;1.30;;
10120;SDS011;5100;45.176;5.714;2022-08-21T08:53:04;2.83;;;1.60;;
10120;SDS011;5100;45.176;5.714;2022-08-21T08:55:34;1.65;;;1.20;;
10120;SDS011;5100;45.176;5.714;2022-08-21T08:58:05;1.50;;;1.40;;
10120;SDS011;5100;45.176;5.714;2022-08-21T09:00:33;1.50;;;1.40;;
10120;SDS011;5100;45.176;5.714;2022-08-21T09:02:59;4.40;;;1.48;;
10120;SDS011;5100;45.176;5.714;2022-08-21T09:05:42;3.62;;;1.70;;
10120;SDS011;5100;45.176;5.714;2022-08-21T09:10:57;2.25;;;1.30;;
10120;SDS011;5100;45.176;5.714;2022-08-21T09:16:28;2.03;;;1.52;;
10120;SDS011;5100;45.176;5.714;2022-08-21T09:19:23;1.30;;;1.20;;
10120;SDS011;5100;45.176;5.714;2022-08-21T09:22:37;1.30;;;1.20;;
10120;SDS011;5100;45.176;5.714;2022-08-21T09:27:45;1.30;;;1.20;;
10120;SDS011;5100;45.176;5.714;2022-08-21T09:30:12;1.73;;;1.50;;
10120;SDS011;5100;45.176;5.714;2022-08-21T09:32:38;3.42;;;1.10;;
10120;SDS011;5100;45.176;5.714;2022-08-21T09:35:15;2.50;;;1.40;;
10120;SDS011;5100;45.176;5.714;2022-08-21T09:40:20;1.80;;;1.40;;
10120;SDS011;5100;45.176;5.714;2022-08-21T09:43:10;1.75;;;1.30;;
10120;SDS011;5100;45.176;5.714;2022-08-21T09:45:40;1.55;;;1.30;;
10120;SDS011;5100;45.176;5.714;2022-08-21T09:48:18;1.70;;;1.30;;
10120;SDS011;5100;45.176;5.714;2022-08-21T09:50:49;1.40;;;1.30;;
10120;SDS011;5100;45.176;5.714;2022-08-21T09:53:17;3.28;;;1.40;;
10120;SDS011;5100;45.176;5.714;2022-08-21T09:55:56;1.90;;;1.27;;
10120;SDS011;5100;45.176;5.714;2022-08-21T09:58:44;1.48;;;1.37;;
10120;SDS011;5100;45.176;5.714;2022-08-21T10:01:19;3.33;;;1.37;;
10120;SDS011;5100;45.176;5.714;2022-08-21T10:06:52;2.60;;;1.40;;
10120;SDS011;5100;45.176;5.714;2022-08-21T10:09:19;1.37;;;1.08;;
10120;SDS011;5100;45.176;5.714;2022-08-21T10:11:51;1.23;;;1.23;;
10120;SDS011;5100;45.176;5.714;2022-08-21T10:14:34;1.23;;;1.20;;
10120;SDS011;5100;45.176;5.714;2022-08-21T10:17:10;1.55;;;1.20;;
10120;SDS011;5100;45.176;5.714;2022-08-21T10:19:51;3.03;;;1.30;;
10120;SDS011;5100;45.176;5.714;2022-08-21T10:25:23;1.15;;;1.05;;
10120;SDS011;5100;45.176;5.714;2022-08-21T10:30:49;1.37;;;1.20;;
10120;SDS011;5100;45.176;5.714;2022-08-21T10:33:28;1.40;;;1.20;;
10120;SDS011;5100;45.176;5.714;2022-08-21T10:41:47;1.62;;;1.40;;
10120;SDS011;5100;45.176;5.714;2022-08-21T10:46:50;1.23;;;1.12;;
10120;SDS011;5100;45.176;5.714;2022-08-21T10:49:31;1.40;;;1.20;;
10120;SDS011;5100;45.176;5.714;2022-08-21T10:55:12;1.58;;;1.30;;
10120;SDS011;5100;45.176;5.714;2022-08-21T11:00:26;1.10;;;1.10;;
10120;SDS011;5100;45.176;5.714;2022-08-21T11:08:17;1.33;;;1.10;;
10120;SDS011;5100;45.176;5.714;2022-08-21T11:10:47;1.20;;;1.10;;
10120;SDS011;5100;45.176;5.714;2022-08-21T11:16:07;1.12;;;1.02;;
10120;SDS011;5100;45.176;5.714;2022-08-21T11:18:39;1.55;;;1.08;;
10120;SDS011;5100;45.176;5.714;2022-08-21T11:24:08;1.35;;;1.25;;
10120;SDS011;5100;45.176;5.714;2022-08-21T11:26:49;4.87;;;1.20;;
10120;SDS011;5100;45.176;5.714;2022-08-21T11:29:20;1.00;;;0.90;;
10120;SDS011;5100;45.176;5.714;2022-08-21T11:34:35;0.98;;;0.98;;
10120;SDS011;5100;45.176;5.714;2022-08-21T11:40:34;5.87;;;1.10;;
10120;SDS011;5100;45.176;5.714;2022-08-21T11:46:15;1.50;;;0.98;;
10120;SDS011;5100;45.176;5.714;2022-08-21T11:53:01;1.08;;;1.08;;
10120;SDS011;5100;45.176;5.714;2022-08-21T11:55:11;1.27;;;1.17;;
10120;SDS011;5100;45.176;5.714;2022-08-21T12:02:49;1.52;;;1.10;;
10120;SDS011;5100;45.176;5.714;2022-08-21T12:05:23;1.27;;;1.00;;
10120;SDS011;5100;45.176;5.714;2022-08-21T12:08:14;1.62;;;0.98;;
10120;SDS011;5100;45.176;5.714;2022-08-21T12:16:36;1.00;;;1.00;;
10120;SDS011;5100;45.176;5.714;2022-08-21T12:19:08;1.00;;;1.00;;
10120;SDS011;5100;45.176;5.714;2022-08-21T12:24:39;1.10;;;1.10;;
10120;SDS011;5100;45.176;5.714;2022-08-21T12:27:14;1.30;;;1.20;;
10120;SDS011;5100;45.176;5.714;2022-08-21T12:29:52;1.60;;;1.10;;
10120;SDS011;5100;45.176;5.714;2022-08-21T12:32:27;0.80;;;0.80;;
10120;SDS011;5100;45.176;5.714;2022-08-21T12:36:01;1.10;;;1.00;;
10120;SDS011;5100;45.176;5.714;2022-08-21T12:38:06;1.40;;;1.10;;
10120;SDS011;5100;45.176;5.714;2022-08-21T12:40:53;1.45;;;1.10;;
10120;SDS011;5100;45.176;5.714;2022-08-21T12:43:45;1.05;;;1.02;;
10120;SDS011;5100;45.176;5.714;2022-08-21T12:46:18;1.20;;;1.10;;
10120;SDS011;5100;45.176;5.714;2022-08-21T12:48:48;1.02;;;0.93;;
10120;SDS011;5100;45.176;5.714;2022-08-21T12:51:31;1.10;;;0.90;;
10120;SDS011;5100;45.176;5.714;2022-08-21T12:54:03;3.25;;;1.02;;
10120;SDS011;5100;45.176;5.714;2022-08-21T12:56:30;1.67;;;0.85;;
10120;SDS011;5100;45.176;5.714;2022-08-21T12:59:10;2.30;;;1.00;;
10120;SDS011;5100;45.176;5.714;2022-08-21T13:01:38;0.98;;;0.88;;
10120;SDS011;5100;45.176;5.714;2022-08-21T13:04:16;1.20;;;1.08;;
10120;SDS011;5100;45.176;5.714;2022-08-21T13:06:47;1.55;;;1.27;;
10120;SDS011;5100;45.176;5.714;2022-08-21T13:09:16;0.90;;;0.90;;
10120;SDS011;5100;45.176;5.714;2022-08-21T13:11:46;2.37;;;1.00;;
10120;SDS011;5100;45.176;5.714;2022-08-21T13:14:15;3.45;;;0.88;;
10120;SDS011;5100;45.176;5.714;2022-08-21T13:16:52;1.85;;;1.00;;
10120;SDS011;5100;45.176;5.714;2022-08-21T13:19:20;0.90;;;0.90;;
10120;SDS011;5100;45.176;5.714;2022-08-21T13:21:47;1.52;;;1.10;;
10120;SDS011;5100;45.176;5.714;2022-08-21T13:24:24;1.30;;;1.20;;
10120;SDS011;5100;45.176;5.714;2022-08-21T13:26:52;1.83;;;0.98;;
10120;SDS011;5100;45.176;5.714;2022-08-21T13:29:20;1.52;;;0.90;;
10120;SDS011;5100;45.176;5.714;2022-08-21T13:31:49;1.08;;;0.80;;
10120;SDS011;5100;45.176;5.714;2022-08-21T13:34:25;1.80;;;0.90;;
10120;SDS011;5100;45.176;5.714;2022-08-21T13:37:00;2.67;;;1.17;;
10120;SDS011;5100;45.176;5.714;2022-08-21T13:39:30;0.95;;;0.95;;
10120;SDS011;5100;45.176;5.714;2022-08-21T13:41:57;1.48;;;1.30;;
10120;SDS011;5100;45.176;5.714;2022-08-21T13:44:34;1.08;;;0.98;;
10120;SDS011;5100;45.176;5.714;2022-08-21T13:47:09;1.15;;;0.98;;
10120;SDS011;5100;45.176;5.714;2022-08-21T13:49:40;0.98;;;0.90;;
10120;SDS011;5100;45.176;5.714;2022-08-21T13:54:59;0.80;;;0.80;;
10120;SDS011;5100;45.176;5.714;2022-08-21T13:57:33;1.10;;;0.95;;
10120;SDS011;5100;45.176;5.714;2022-08-21T14:00:13;1.60;;;1.20;;
10120;SDS011;5100;45.176;5.714;2022-08-21T14:02:52;2.10;;;1.00;;
10120;SDS011;5100;45.176;5.714;2022-08-21T14:05:25;0.95;;;0.80;;
10120;SDS011;5100;45.176;5.714;2022-08-21T14:08:04;1.00;;;0.93;;
10120;SDS011;5100;45.176;5.714;2022-08-21T14:10:51;1.00;;;0.90;;
10120;SDS011;5100;45.176;5.714;2022-08-21T14:15:59;2.05;;;1.20;;
10120;SDS011;5100;45.176;5.714;2022-08-21T14:18:28;0.85;;;0.80;;
10120;SDS011;5100;45.176;5.714;2022-08-21T14:21:07;2.28;;;1.20;;
10120;SDS011;5100;45.176;5.714;2022-08-21T14:23:35;1.45;;;0.90;;
10120;SDS011;5100;45.176;5.714;2022-08-21T14:26:03;2.97;;;1.40;;
10120;SDS011;5100;45.176;5.714;2022-08-21T14:28:32;0.75;;;0.75;;
10120;SDS011;5100;45.176;5.714;2022-08-21T14:31:13;1.08;;;0.98;;
10120;SDS011;5100;45.176;5.714;2022-08-21T14:33:41;2.65;;;1.23;;
10120;SDS011;5100;45.176;5.714;2022-08-21T14:36:08;0.82;;;0.82;;
10120;SDS011;5100;45.176;5.714;2022-08-21T14:38:36;0.95;;;0.90;;
10120;SDS011;5100;45.176;5.714;2022-08-21T14:41:04;1.10;;;1.00;;
10120;SDS011;5100;45.176;5.714;2022-08-21T14:43:46;3.78;;;1.25;;
10120;SDS011;5100;45.176;5.714;2022-08-21T14:46:16;4.78;;;1.00;;
10120;SDS011;5100;45.176;5.714;2022-08-21T14:48:47;1.77;;;1.05;;
10120;SDS011;5100;45.176;5.714;2022-08-21T14:51:13;2.17;;;1.00;;
10120;SDS011;5100;45.176;5.714;2022-08-21T14:53:39;2.17;;;1.10;;
10120;SDS011;5100;45.176;5.714;2022-08-21T14:56:06;1.10;;;1.00;;
10120;SDS011;5100;45.176;5.714;2022-08-21T14:58:33;2.47;;;1.20;;
10120;SDS011;5100;45.176;5.714;2022-08-21T15:01:01;1.75;;;1.20;;
10120;SDS011;5100;45.176;5.714;2022-08-21T15:03:30;1.27;;;1.10;;
10120;SDS011;5100;45.176;5.714;2022-08-21T15:05:56;1.20;;;1.10;;
10120;SDS011;5100;45.176;5.714;2022-08-21T15:08:23;1.17;;;1.08;;
10120;SDS011;5100;45.176;5.714;2022-08-21T15:10:50;2.03;;;1.40;;
10120;SDS011;5100;45.176;5.714;2022-08-21T15:13:18;2.22;;;1.30;;
10120;SDS011;5100;45.176;5.714;2022-08-21T15:15:45;2.35;;;1.33;;
10120;SDS011;5100;45.176;5.714;2022-08-21T15:18:13;1.50;;;1.20;;
10120;SDS011;5100;45.176;5.714;2022-08-21T15:20:39;2.42;;;1.37;;
10120;SDS011;5100;45.176;5.714;2022-08-21T15:23:06;2.28;;;1.20;;
10120;SDS011;5100;45.176;5.714;2022-08-21T15:25:34;1.30;;;1.20;;
10120;SDS011;5100;45.176;5.714;2022-08-21T15:28:01;1.30;;;1.00;;
10120;SDS011;5100;45.176;5.714;2022-08-21T15:30:28;1.62;;;1.33;;
10120;SDS011;5100;45.176;5.714;2022-08-21T15:32:56;2.70;;;1.50;;
10120;SDS011;5100;45.176;5.714;2022-08-21T15:35:22;1.65;;;1.42;;
10120;SDS011;5100;45.176;5.714;2022-08-21T15:37:48;5.82;;;1.75;;
10120;SDS011;5100;45.176;5.714;2022-08-21T15:40:15;3.12;;;1.35;;
10120;SDS011;5100;45.176;5.714;2022-08-21T15:42:41;2.12;;;1.42;;
10120;SDS011;5100;45.176;5.714;2022-08-21T15:45:09;1.30;;;1.20;;
10120;SDS011;5100;45.176;5.714;2022-08-21T15:47:37;1.85;;;1.30;;
10120;SDS011;5100;45.176;5.714;2022-08-21T15:50:08;2.30;;;1.40;;
10120;SDS011;5100;45.176;5.714;2022-08-21T15:52:34;1.70;;;1.12;;
10120;SDS011;5100;45.176;5.714;2022-08-21T15:55:01;1.35;;;1.25;;
10120;SDS011;5100;45.176;5.714;2022-08-21T15:57:27;2.97;;;1.60;;
10120;SDS011;5100;45.176;5.714;2022-08-21T15:59:55;2.12;;;1.20;;
10120;SDS011;5100;45.176;5.714;2022-08-21T16:02:29;2.50;;;1.30;;
10120;SDS011;5100;45.176;5.714;2022-08-21T16:04:57;2.60;;;1.35;;
10120;SDS011;5100;45.176;5.714;2022-08-21T16:07:23;3.00;;;1.40;;
10120;SDS011;5100;45.176;5.714;2022-08-21T16:09:50;1.90;;;1.25;;
10120;SDS011;5100;45.176;5.714;2022-08-21T16:12:20;2.00;;;1.40;;
10120;SDS011;5100;45.176;5.714;2022-08-21T16:14:48;2.65;;;1.40;;
10120;SDS011;5100;45.176;5.714;2022-08-21T16:17:16;1.30;;;1.20;;
10120;SDS011;5100;45.176;5.714;2022-08-21T16:19:42;5.60;;;1.42;;
10120;SDS011;5100;45.176;5.714;2022-08-21T16:22:08;1.70;;;1.30;;
10120;SDS011;5100;45.176;5.714;2022-08-21T16:24:34;1.62;;;1.25;;
10120;SDS011;5100;45.176;5.714;2022-08-21T16:27:01;2.97;;;1.30;;
10120;SDS011;5100;45.176;5.714;2022-08-21T16:29:29;2.75;;;1.20;;
10120;SDS011;5100;45.176;5.714;2022-08-21T16:31:59;2.03;;;1.30;;
10120;SDS011;5100;45.176;5.714;2022-08-21T16:34:26;2.95;;;1.27;;
10120;SDS011;5100;45.176;5.714;2022-08-21T16:36:53;1.30;;;1.20;;